sensor_id;sensor_type;location;lat;lon;timestamp;pressure;altitude;pressure_sealevel;temperature;humidity
38289;BME280;24092;53.370;-6.588;2023-03-01T00:00:02;103169.66;;;-2.42;100.00
38289;BME280;24092;53.370;-6.588;2023-03-01T00:02:29;103165.72;;;-1.28;100.00
38289;BME280;24092;53.370;-6.588;2023-03-01T00:04:56;103166.29;;;-2.08;100.00
38289;BME280;24092;53.370;-6.588;2023-03-01T00:07:23;103163.97;;;-3.13;100.00
38289;BME280;24092;53.370;-6.588;2023-03-01T00:09:50;103160.15;;;-0.79;100.00
38289;BME280;24092;53.370;-6.588;2023-03-01T00:12:17;103155.25;;;-1.16;100.00
38289;BME280;24092;53.370;-6.588;2023-03-01T00:14:44;103149.53;;;-1.27;100.00
38289;BME280;24092;53.370;-6.588;2023-03-01T00:17:12;103160.92;;;-2.21;100.00
38289;BME280;24092;53.370;-6.588;2023-03-01T00:19:39;103153.35;;;-2.74;100.00
38289;BME280;24092;53.370;-6.588;2023-03-01T00:22:05;103151.68;;;-2.59;100.00
38289;BME280;24092;53.370;-6.588;2023-03-01T00:24:32;103147.63;;;-1.63;100.00
38289;BME280;24092;53.370;-6.588;2023-03-01T00:26:59;103150.02;;;-2.63;100.00
38289;BME280;24092;53.370;-6.588;2023-03-01T00:29:27;103143.30;;;-1.09;100.00
38289;BME280;24092;53.370;-6.588;2023-03-01T00:31:53;103138.64;;;-1.43;100.00
38289;BME280;24092;53.370;-6.588;2023-03-01T00:34:21;103140.11;;;-2.33;100.00
38289;BME280;24092;53.370;-6.588;2023-03-01T00:36:48;103139.84;;;-2.38;100.00
38289;BME280;24092;53.370;-6.588;2023-03-01T00:39:15;103135.58;;;-2.67;100.00
38289;BME280;24092;53.370;-6.588;2023-03-01T00:41:42;103131.93;;;-1.70;100.00
38289;BME280;24092;53.370;-6.588;2023-03-01T00:44:10;103135.48;;;-1.96;100.00
38289;BME280;24092;53.370;-6.588;2023-03-01T00:46:39;103130.06;;;-1.31;100.00
38289;BME280;24092;53.370;-6.588;2023-03-01T00:49:06;103136.32;;;-2.03;100.00
38289;BME280;24092;53.370;-6.588;2023-03-01T00:51:34;103129.71;;;-0.51;100.00
38289;BME280;24092;53.370;-6.588;2023-03-01T00:57:14;103133.33;;;-1.02;100.00
38289;BME280;24092;53.370;-6.588;2023-03-01T00:59:41;103128.65;;;-1.58;100.00
38289;BME280;24092;53.370;-6.588;2023-03-01T01:02:09;103128.01;;;-1.45;100.00
38289;BME280;24092;53.370;-6.588;2023-03-01T01:04:36;103131.45;;;-2.42;100.00
38289;BME280;24092;53.370;-6.588;2023-03-01T01:07:03;103131.06;;;-2.74;100.00
38289;BME280;24092;53.370;-6.588;2023-03-01T01:09:31;103128.01;;;-2.09;100.00
38289;BME280;24092;53.370;-6.588;2023-03-01T01:11:58;103132.89;;;-2.16;100.00
38289;BME280;24092;53.370;-6.588;2023-03-01T01:14:25;103127.40;;;-0.91;100.00
38289;BME280;24092;53.370;-6.588;2023-03-01T01:16:52;103127.69;;;-0.58;100.00
38289;BME280;24092;53.370;-6.588;2023-03-01T01:19:20;103134.12;;;-2.42;100.00
38289;BME280;24092;53.370;-6.588;2023-03-01T01:21:48;103127.00;;;-1.18;100.00
38289;BME280;24092;53.370;-6.588;2023-03-01T01:24:15;103127.55;;;-1.10;100.00
38289;BME280;24092;53.370;-6.588;2023-03-01T01:26:43;103122.93;;;-1.97;100.00
38289;BME280;24092;53.370;-6.588;2023-03-01T01:29:10;103123.58;;;-1.40;100.00
38289;BME280;24092;53.370;-6.588;2023-03-01T01:31:39;103124.94;;;-2.01;100.00
38289;BME280;24092;53.370;-6.588;2023-03-01T01:34:12;103126.76;;;-2.46;100.00
38289;BME280;24092;53.370;-6.588;2023-03-01T01:36:40;103122.71;;;-1.73;100.00
38289;BME280;24092;53.370;-6.588;2023-03-01T01:39:07;103121.61;;;-1.69;100.00
38289;BME280;24092;53.370;-6.588;2023-03-01T01:41:34;103119.42;;;-0.34;100.00
38289;BME280;24092;53.370;-6.588;2023-03-01T01:44:18;103120.95;;;-1.30;100.00
38289;BME280;24092;53.370;-6.588;2023-03-01T01:46:50;103115.31;;;-1.19;100.00
38289;BME280;24092;53.370;-6.588;2023-03-01T01:49:24;103111.41;;;-2.16;100.00
38289;BME280;24092;53.370;-6.588;2023-03-01T01:51:59;103108.02;;;-1.91;100.00
38289;BME280;24092;53.370;-6.588;2023-03-01T01:54:31;103109.26;;;-2.30;100.00
38289;BME280;24092;53.370;-6.588;2023-03-01T01:57:06;103106.22;;;-2.11;100.00
38289;BME280;24092;53.370;-6.588;2023-03-01T01:59:34;103101.21;;;-2.38;100.00
38289;BME280;24092;53.370;-6.588;2023-03-01T02:02:03;103096.34;;;-2.17;100.00
38289;BME280;24092;53.370;-6.588;2023-03-01T02:04:32;103091.21;;;-2.00;100.00
38289;BME280;24092;53.370;-6.588;2023-03-01T02:07:02;103088.93;;;-2.26;100.00
38289;BME280;24092;53.370;-6.588;2023-03-01T02:09:33;103085.96;;;-2.33;100.00
38289;BME280;24092;53.370;-6.588;2023-03-01T02:12:02;103084.57;;;-2.08;100.00
38289;BME280;24092;53.370;-6.588;2023-03-01T02:14:30;103080.61;;;-2.20;100.00
38289;BME280;24092;53.370;-6.588;2023-03-01T02:16:57;103064.81;;;-1.79;100.00
38289;BME280;24092;53.370;-6.588;2023-03-01T02:19:32;103070.81;;;-2.33;100.00
38289;BME280;24092;53.370;-6.588;2023-03-01T02:22:13;103071.44;;;-2.32;100.00
38289;BME280;24092;53.370;-6.588;2023-03-01T02:24:50;103074.65;;;-2.48;100.00
38289;BME280;24092;53.370;-6.588;2023-03-01T02:27:23;103071.40;;;-1.95;100.00
38289;BME280;24092;53.370;-6.588;2023-03-01T02:29:52;103067.73;;;-1.90;100.00
38289;BME280;24092;53.370;-6.588;2023-03-01T02:32:20;103066.61;;;-1.84;100.00
38289;BME280;24092;53.370;-6.588;2023-03-01T02:34:48;103057.36;;;-2.14;100.00
38289;BME280;24092;53.370;-6.588;2023-03-01T02:37:15;103058.67;;;-2.47;100.00
38289;BME280;24092;53.370;-6.588;2023-03-01T02:39:46;103046.94;;;-1.45;100.00
38289;BME280;24092;53.370;-6.588;2023-03-01T02:42:18;103044.06;;;-2.31;100.00
38289;BME280;24092;53.370;-6.588;2023-03-01T02:44:49;103038.72;;;-2.52;100.00
38289;BME280;24092;53.370;-6.588;2023-03-01T02:47:16;103035.41;;;-2.00;100.00
38289;BME280;24092;53.370;-6.588;2023-03-01T02:49:43;103025.91;;;-2.14;100.00
38289;BME280;24092;53.370;-6.588;2023-03-01T02:52:26;103027.27;;;-1.79;100.00
38289;BME280;24092;53.370;-6.588;2023-03-01T02:55:00;103026.94;;;-2.36;100.00
38289;BME280;24092;53.370;-6.588;2023-03-01T02:57:29;103028.91;;;-2.14;100.00
38289;BME280;24092;53.370;-6.588;2023-03-01T02:59:58;103022.39;;;-2.36;100.00
38289;BME280;24092;53.370;-6.588;2023-03-01T03:02:28;103011.60;;;-2.08;100.00
38289;BME280;24092;53.370;-6.588;2023-03-01T03:04:56;103017.06;;;-2.25;100.00
38289;BME280;24092;53.370;-6.588;2023-03-01T03:07:23;103015.03;;;-2.11;100.00
38289;BME280;24092;53.370;-6.588;2023-03-01T03:09:50;103009.48;;;-2.12;100.00
38289;BME280;24092;53.370;-6.588;2023-03-01T03:12:17;103007.28;;;-1.99;100.00
38289;BME280;24092;53.370;-6.588;2023-03-01T03:14:45;103008.78;;;-1.93;100.00
38289;BME280;24092;53.370;-6.588;2023-03-01T03:17:12;103004.41;;;-2.11;100.00
38289;BME280;24092;53.370;-6.588;2023-03-01T03:19:40;102996.49;;;-2.14;100.00
38289;BME280;24092;53.370;-6.588;2023-03-01T03:22:07;102995.63;;;-2.13;100.00
38289;BME280;24092;53.370;-6.588;2023-03-01T03:24:34;102997.14;;;-2.42;100.00
38289;BME280;24092;53.370;-6.588;2023-03-01T03:27:01;102997.09;;;-1.94;100.00
38289;BME280;24092;53.370;-6.588;2023-03-01T03:29:28;102994.01;;;-1.51;100.00
38289;BME280;24092;53.370;-6.588;2023-03-01T03:31:55;102996.11;;;-2.17;100.00
38289;BME280;24092;53.370;-6.588;2023-03-01T03:34:23;102988.48;;;-1.85;100.00
38289;BME280;24092;53.370;-6.588;2023-03-01T03:36:53;102993.54;;;-2.51;100.00
38289;BME280;24092;53.370;-6.588;2023-03-01T03:39:20;102998.02;;;-1.69;100.00
38289;BME280;24092;53.370;-6.588;2023-03-01T03:41:47;102998.75;;;-1.62;100.00
38289;BME280;24092;53.370;-6.588;2023-03-01T03:44:14;102998.20;;;-2.50;100.00
38289;BME280;24092;53.370;-6.588;2023-03-01T03:46:41;102995.14;;;-2.13;100.00
38289;BME280;24092;53.370;-6.588;2023-03-01T03:49:09;102991.68;;;-2.28;100.00
38289;BME280;24092;53.370;-6.588;2023-03-01T03:51:36;102998.42;;;-2.27;100.00
38289;BME280;24092;53.370;-6.588;2023-03-01T03:54:03;102997.56;;;-2.23;100.00
38289;BME280;24092;53.370;-6.588;2023-03-01T03:56:30;102992.61;;;-2.25;100.00
38289;BME280;24092;53.370;-6.588;2023-03-01T03:58:57;102989.31;;;-1.88;100.00
38289;BME280;24092;53.370;-6.588;2023-03-01T04:01:24;102993.08;;;-2.37;100.00
38289;BME280;24092;53.370;-6.588;2023-03-01T04:03:51;102990.92;;;-1.99;100.00
38289;BME280;24092;53.370;-6.588;2023-03-01T04:06:21;102985.40;;;-2.06;100.00
38289;BME280;24092;53.370;-6.588;2023-03-01T04:08:48;102985.23;;;-2.25;100.00
38289;BME280;24092;53.370;-6.588;2023-03-01T04:11:15;102985.24;;;-1.77;100.00
38289;BME280;24092;53.370;-6.588;2023-03-01T04:13:43;102990.15;;;-1.93;100.00
38289;BME280;24092;53.370;-6.588;2023-03-01T04:16:10;102992.29;;;-2.23;100.00
38289;BME280;24092;53.370;-6.588;2023-03-01T04:18:37;102992.23;;;-2.14;100.00
38289;BME280;24092;53.370;-6.588;2023-03-01T04:21:04;102989.50;;;-2.14;100.00
38289;BME280;24092;53.370;-6.588;2023-03-01T04:23:31;102990.04;;;-2.54;100.00
38289;BME280;24092;53.370;-6.588;2023-03-01T04:25:59;102988.78;;;-2.13;100.00
38289;BME280;24092;53.370;-6.588;2023-03-01T04:28:28;102993.31;;;-2.17;100.00
38289;BME280;24092;53.370;-6.588;2023-03-01T04:30:57;102988.02;;;-2.25;100.00
38289;BME280;24092;53.370;-6.588;2023-03-01T04:33:25;102990.05;;;-2.86;100.00
38289;BME280;24092;53.370;-6.588;2023-03-01T04:35:52;102988.17;;;-2.18;100.00
38289;BME280;24092;53.370;-6.588;2023-03-01T04:38:20;102984.57;;;-1.99;100.00
38289;BME280;24092;53.370;-6.588;2023-03-01T04:40:47;102979.48;;;-2.50;100.00
38289;BME280;24092;53.370;-6.588;2023-03-01T04:43:14;102977.00;;;-2.09;100.00
38289;BME280;24092;53.370;-6.588;2023-03-01T04:45:42;102974.71;;;-2.14;100.00
38289;BME280;24092;53.370;-6.588;2023-03-01T04:48:09;102965.74;;;-2.91;100.00
38289;BME280;24092;53.370;-6.588;2023-03-01T04:50:36;102963.67;;;-2.90;100.00
38289;BME280;24092;53.370;-6.588;2023-03-01T04:53:03;102964.40;;;-2.74;100.00
38289;BME280;24092;53.370;-6.588;2023-03-01T04:55:30;102966.89;;;-2.17;100.00
38289;BME280;24092;53.370;-6.588;2023-03-01T04:57:57;102968.49;;;-2.31;100.00
38289;BME280;24092;53.370;-6.588;2023-03-01T05:00:25;102962.16;;;-2.62;100.00
38289;BME280;24092;53.370;-6.588;2023-03-01T05:02:54;102959.56;;;-2.44;100.00
38289;BME280;24092;53.370;-6.588;2023-03-01T05:05:23;102952.52;;;-2.47;100.00
38289;BME280;24092;53.370;-6.588;2023-03-01T05:07:54;102960.11;;;-2.62;100.00
38289;BME280;24092;53.370;-6.588;2023-03-01T05:10:23;102954.30;;;-1.83;100.00
38289;BME280;24092;53.370;-6.588;2023-03-01T05:12:51;102950.77;;;-2.52;100.00
38289;BME280;24092;53.370;-6.588;2023-03-01T05:15:18;102946.51;;;-2.67;100.00
38289;BME280;24092;53.370;-6.588;2023-03-01T05:17:45;102944.21;;;-2.40;100.00
38289;BME280;24092;53.370;-6.588;2023-03-01T05:20:12;102948.12;;;-2.23;100.00
38289;BME280;24092;53.370;-6.588;2023-03-01T05:22:39;102947.91;;;-2.60;100.00
38289;BME280;24092;53.370;-6.588;2023-03-01T05:25:07;102948.34;;;-2.53;100.00
38289;BME280;24092;53.370;-6.588;2023-03-01T05:27:35;102949.28;;;-2.25;100.00
38289;BME280;24092;53.370;-6.588;2023-03-01T05:30:04;102945.44;;;-2.38;100.00
38289;BME280;24092;53.370;-6.588;2023-03-01T05:32:30;102949.46;;;-2.06;100.00
38289;BME280;24092;53.370;-6.588;2023-03-01T05:34:58;102955.35;;;-2.98;100.00
38289;BME280;24092;53.370;-6.588;2023-03-01T05:37:25;102951.85;;;-2.33;100.00
38289;BME280;24092;53.370;-6.588;2023-03-01T05:39:52;102958.68;;;-1.65;100.00
38289;BME280;24092;53.370;-6.588;2023-03-01T05:42:19;102953.32;;;-2.61;100.00
38289;BME280;24092;53.370;-6.588;2023-03-01T05:44:46;102955.62;;;-1.70;100.00
38289;BME280;24092;53.370;-6.588;2023-03-01T05:47:13;102954.96;;;-1.87;100.00
38289;BME280;24092;53.370;-6.588;2023-03-01T05:49:40;102954.98;;;-2.34;100.00
38289;BME280;24092;53.370;-6.588;2023-03-01T05:52:08;102954.42;;;-1.92;100.00
38289;BME280;24092;53.370;-6.588;2023-03-01T05:54:35;102962.09;;;-1.46;100.00
38289;BME280;24092;53.370;-6.588;2023-03-01T05:57:02;102963.26;;;-1.86;100.00
38289;BME280;24092;53.370;-6.588;2023-03-01T05:59:29;102969.39;;;-1.06;100.00
38289;BME280;24092;53.370;-6.588;2023-03-01T06:01:56;102968.53;;;-1.28;100.00
38289;BME280;24092;53.370;-6.588;2023-03-01T06:04:23;102970.34;;;-1.87;100.00
38289;BME280;24092;53.370;-6.588;2023-03-01T06:06:50;102970.55;;;-0.94;100.00
38289;BME280;24092;53.370;-6.588;2023-03-01T06:09:17;102966.24;;;-1.13;100.00
38289;BME280;24092;53.370;-6.588;2023-03-01T06:11:45;102969.32;;;-1.22;100.00
38289;BME280;24092;53.370;-6.588;2023-03-01T06:14:12;102976.85;;;-1.85;100.00
38289;BME280;24092;53.370;-6.588;2023-03-01T06:16:39;102981.70;;;-1.31;100.00
38289;BME280;24092;53.370;-6.588;2023-03-01T06:19:06;102985.77;;;-1.44;100.00
38289;BME280;24092;53.370;-6.588;2023-03-01T06:21:33;102987.95;;;-0.57;100.00
38289;BME280;24092;53.370;-6.588;2023-03-01T06:24:00;102991.24;;;-1.37;100.00
38289;BME280;24092;53.370;-6.588;2023-03-01T06:26:27;102992.13;;;-0.95;100.00
38289;BME280;24092;53.370;-6.588;2023-03-01T06:28:55;102990.58;;;-0.05;100.00
38289;BME280;24092;53.370;-6.588;2023-03-01T06:31:22;102992.13;;;-0.48;100.00
38289;BME280;24092;53.370;-6.588;2023-03-01T06:33:49;102983.58;;;-1.71;100.00
38289;BME280;24092;53.370;-6.588;2023-03-01T06:36:16;102984.58;;;-1.48;100.00
38289;BME280;24092;53.370;-6.588;2023-03-01T06:38:43;102978.55;;;-1.91;100.00
38289;BME280;24092;53.370;-6.588;2023-03-01T06:41:10;102975.77;;;-2.33;100.00
38289;BME280;24092;53.370;-6.588;2023-03-01T06:43:37;102972.10;;;-1.65;100.00
38289;BME280;24092;53.370;-6.588;2023-03-01T06:46:05;102972.23;;;-2.34;100.00
38289;BME280;24092;53.370;-6.588;2023-03-01T06:48:33;102975.58;;;-2.68;100.00
38289;BME280;24092;53.370;-6.588;2023-03-01T06:51:01;102972.59;;;-2.51;100.00
38289;BME280;24092;53.370;-6.588;2023-03-01T06:53:28;102971.95;;;-2.75;100.00
38289;BME280;24092;53.370;-6.588;2023-03-01T06:55:56;102979.46;;;-2.66;100.00
38289;BME280;24092;53.370;-6.588;2023-03-01T06:58:23;102978.47;;;-2.58;100.00
38289;BME280;24092;53.370;-6.588;2023-03-01T07:00:50;102970.13;;;-2.16;100.00
38289;BME280;24092;53.370;-6.588;2023-03-01T07:03:17;102973.89;;;-1.98;100.00
38289;BME280;24092;53.370;-6.588;2023-03-01T07:05:45;102976.18;;;-2.04;100.00
38289;BME280;24092;53.370;-6.588;2023-03-01T07:08:11;102978.73;;;-2.57;100.00
38289;BME280;24092;53.370;-6.588;2023-03-01T07:10:39;102978.83;;;-2.78;100.00
38289;BME280;24092;53.370;-6.588;2023-03-01T07:13:06;102973.39;;;-2.05;100.00
38289;BME280;24092;53.370;-6.588;2023-03-01T07:15:33;102971.54;;;-1.91;100.00
38289;BME280;24092;53.370;-6.588;2023-03-01T07:18:00;102968.73;;;-2.07;100.00
38289;BME280;24092;53.370;-6.588;2023-03-01T07:20:27;102979.90;;;-2.44;100.00
38289;BME280;24092;53.370;-6.588;2023-03-01T07:22:55;102978.11;;;-2.45;100.00
38289;BME280;24092;53.370;-6.588;2023-03-01T07:25:22;102985.96;;;-2.91;100.00
38289;BME280;24092;53.370;-6.588;2023-03-01T07:27:50;102988.88;;;-2.41;100.00
38289;BME280;24092;53.370;-6.588;2023-03-01T07:30:18;102978.89;;;-2.31;100.00
38289;BME280;24092;53.370;-6.588;2023-03-01T07:32:46;102983.14;;;-2.11;100.00
38289;BME280;24092;53.370;-6.588;2023-03-01T07:35:14;102980.14;;;-2.32;100.00
38289;BME280;24092;53.370;-6.588;2023-03-01T07:37:41;102977.40;;;-1.00;100.00
38289;BME280;24092;53.370;-6.588;2023-03-01T07:40:09;102975.16;;;-1.63;100.00
38289;BME280;24092;53.370;-6.588;2023-03-01T07:42:37;102971.49;;;-2.25;100.00
38289;BME280;24092;53.370;-6.588;2023-03-01T07:45:05;102963.73;;;-2.56;100.00
38289;BME280;24092;53.370;-6.588;2023-03-01T07:47:33;102961.81;;;-1.95;100.00
38289;BME280;24092;53.370;-6.588;2023-03-01T07:50:00;102956.34;;;-2.12;100.00
38289;BME280;24092;53.370;-6.588;2023-03-01T07:52:27;102957.18;;;-1.81;100.00
38289;BME280;24092;53.370;-6.588;2023-03-01T07:54:54;102955.13;;;-2.35;100.00
38289;BME280;24092;53.370;-6.588;2023-03-01T07:57:21;102958.52;;;-2.04;100.00
38289;BME280;24092;53.370;-6.588;2023-03-01T07:59:48;102959.16;;;-2.23;100.00
38289;BME280;24092;53.370;-6.588;2023-03-01T08:02:16;102965.78;;;-1.23;100.00
38289;BME280;24092;53.370;-6.588;2023-03-01T08:04:43;102966.47;;;-1.71;100.00
38289;BME280;24092;53.370;-6.588;2023-03-01T08:07:10;102968.13;;;-2.16;100.00
38289;BME280;24092;53.370;-6.588;2023-03-01T08:09:37;102968.88;;;-2.37;100.00
38289;BME280;24092;53.370;-6.588;2023-03-01T08:12:04;102969.07;;;-2.42;100.00
38289;BME280;24092;53.370;-6.588;2023-03-01T08:14:32;102971.59;;;-1.54;100.00
38289;BME280;24092;53.370;-6.588;2023-03-01T08:16:59;102972.94;;;-1.62;100.00
38289;BME280;24092;53.370;-6.588;2023-03-01T08:19:26;102974.96;;;-1.55;100.00
38289;BME280;24092;53.370;-6.588;2023-03-01T08:21:53;102974.57;;;-2.29;100.00
38289;BME280;24092;53.370;-6.588;2023-03-01T08:24:20;102976.23;;;-1.57;100.00
38289;BME280;24092;53.370;-6.588;2023-03-01T08:26:47;102971.85;;;-1.21;100.00
38289;BME280;24092;53.370;-6.588;2023-03-01T08:29:15;102973.27;;;-2.24;100.00
38289;BME280;24092;53.370;-6.588;2023-03-01T08:31:42;102971.37;;;-2.17;100.00
38289;BME280;24092;53.370;-6.588;2023-03-01T08:34:12;102977.52;;;-2.22;100.00
38289;BME280;24092;53.370;-6.588;2023-03-01T08:36:41;102970.77;;;-2.15;100.00
38289;BME280;24092;53.370;-6.588;2023-03-01T08:39:09;102975.79;;;-2.74;100.00
38289;BME280;24092;53.370;-6.588;2023-03-01T08:41:37;102982.57;;;-2.66;100.00
38289;BME280;24092;53.370;-6.588;2023-03-01T08:44:05;102984.49;;;-1.54;100.00
38289;BME280;24092;53.370;-6.588;2023-03-01T08:46:34;102985.06;;;-1.82;100.00
38289;BME280;24092;53.370;-6.588;2023-03-01T08:49:03;102985.14;;;-1.93;100.00
38289;BME280;24092;53.370;-6.588;2023-03-01T08:51:31;102993.66;;;-2.46;100.00
38289;BME280;24092;53.370;-6.588;2023-03-01T08:53:58;102992.26;;;-2.77;100.00
38289;BME280;24092;53.370;-6.588;2023-03-01T08:56:25;102989.16;;;-2.75;100.00
38289;BME280;24092;53.370;-6.588;2023-03-01T08:58:52;102999.49;;;-2.26;100.00
38289;BME280;24092;53.370;-6.588;2023-03-01T09:01:20;102997.20;;;-2.82;100.00
38289;BME280;24092;53.370;-6.588;2023-03-01T09:03:47;102997.44;;;-2.67;100.00
38289;BME280;24092;53.370;-6.588;2023-03-01T09:06:14;102988.22;;;-1.92;100.00
38289;BME280;24092;53.370;-6.588;2023-03-01T09:08:44;102994.54;;;-2.21;100.00
38289;BME280;24092;53.370;-6.588;2023-03-01T09:11:13;102995.11;;;-2.13;100.00
38289;BME280;24092;53.370;-6.588;2023-03-01T09:13:40;102994.53;;;-2.46;100.00
38289;BME280;24092;53.370;-6.588;2023-03-01T09:16:08;102991.70;;;-1.96;100.00
38289;BME280;24092;53.370;-6.588;2023-03-01T09:18:36;102989.80;;;-1.52;100.00
38289;BME280;24092;53.370;-6.588;2023-03-01T09:21:04;102986.71;;;-1.59;100.00
38289;BME280;24092;53.370;-6.588;2023-03-01T09:23:31;102993.20;;;-2.11;100.00
38289;BME280;24092;53.370;-6.588;2023-03-01T09:25:58;102992.39;;;-2.02;100.00
38289;BME280;24092;53.370;-6.588;2023-03-01T09:28:26;102992.78;;;-1.54;100.00
38289;BME280;24092;53.370;-6.588;2023-03-01T09:30:53;102985.50;;;-2.11;100.00
38289;BME280;24092;53.370;-6.588;2023-03-01T09:33:20;102987.00;;;-1.80;100.00
38289;BME280;24092;53.370;-6.588;2023-03-01T09:35:47;102985.68;;;-2.09;100.00
38289;BME280;24092;53.370;-6.588;2023-03-01T09:38:14;102985.43;;;-1.65;100.00
38289;BME280;24092;53.370;-6.588;2023-03-01T09:40:44;102988.23;;;-1.54;100.00
38289;BME280;24092;53.370;-6.588;2023-03-01T09:43:18;102991.81;;;-2.06;100.00
38289;BME280;24092;53.370;-6.588;2023-03-01T09:45:48;102995.14;;;-2.88;100.00
38289;BME280;24092;53.370;-6.588;2023-03-01T09:48:21;102999.01;;;-2.44;100.00
38289;BME280;24092;53.370;-6.588;2023-03-01T09:50:49;103001.59;;;-2.08;100.00
38289;BME280;24092;53.370;-6.588;2023-03-01T09:53:20;102999.38;;;-2.55;100.00
38289;BME280;24092;53.370;-6.588;2023-03-01T09:55:53;103005.96;;;-2.20;100.00
38289;BME280;24092;53.370;-6.588;2023-03-01T09:58:32;102998.14;;;-2.09;100.00
38289;BME280;24092;53.370;-6.588;2023-03-01T10:01:10;102996.71;;;-2.15;100.00
38289;BME280;24092;53.370;-6.588;2023-03-01T10:03:44;102990.96;;;-2.37;100.00
38289;BME280;24092;53.370;-6.588;2023-03-01T10:06:17;102986.60;;;-2.04;100.00
38289;BME280;24092;53.370;-6.588;2023-03-01T10:08:50;102983.87;;;-2.16;100.00
38289;BME280;24092;53.370;-6.588;2023-03-01T10:11:22;102983.42;;;-1.52;100.00
38289;BME280;24092;53.370;-6.588;2023-03-01T10:13:56;102976.14;;;-1.98;100.00
38289;BME280;24092;53.370;-6.588;2023-03-01T10:16:38;102989.26;;;-2.01;100.00
38289;BME280;24092;53.370;-6.588;2023-03-01T10:19:12;102984.83;;;-1.86;100.00
38289;BME280;24092;53.370;-6.588;2023-03-01T10:21:45;102981.94;;;-1.85;100.00
38289;BME280;24092;53.370;-6.588;2023-03-01T10:24:14;102982.52;;;-1.90;100.00
38289;BME280;24092;53.370;-6.588;2023-03-01T10:26:48;102984.36;;;-1.15;100.00
38289;BME280;24092;53.370;-6.588;2023-03-01T10:29:17;102983.92;;;-2.04;100.00
38289;BME280;24092;53.370;-6.588;2023-03-01T10:31:48;102988.43;;;-1.38;100.00
38289;BME280;24092;53.370;-6.588;2023-03-01T10:34:18;102990.83;;;-2.03;100.00
38289;BME280;24092;53.370;-6.588;2023-03-01T10:36:50;102993.01;;;-1.63;100.00
38289;BME280;24092;53.370;-6.588;2023-03-01T10:39:19;102986.53;;;-1.83;100.00
38289;BME280;24092;53.370;-6.588;2023-03-01T10:41:58;102977.11;;;-1.60;100.00
38289;BME280;24092;53.370;-6.588;2023-03-01T10:44:37;102977.81;;;-1.75;100.00
38289;BME280;24092;53.370;-6.588;2023-03-01T10:47:11;102981.40;;;-2.16;100.00
38289;BME280;24092;53.370;-6.588;2023-03-01T10:49:52;102976.60;;;-1.48;100.00
38289;BME280;24092;53.370;-6.588;2023-03-01T10:52:21;102974.21;;;-1.94;100.00
38289;BME280;24092;53.370;-6.588;2023-03-01T10:54:53;102972.25;;;-1.63;100.00
38289;BME280;24092;53.370;-6.588;2023-03-01T10:57:32;102965.07;;;-1.53;100.00
38289;BME280;24092;53.370;-6.588;2023-03-01T11:00:44;102965.27;;;-1.81;100.00
38289;BME280;24092;53.370;-6.588;2023-03-01T11:03:15;102959.42;;;-1.48;100.00
38289;BME280;24092;53.370;-6.588;2023-03-01T11:05:54;102960.84;;;-1.43;100.00
38289;BME280;24092;53.370;-6.588;2023-03-01T11:08:39;102962.97;;;-1.50;100.00
38289;BME280;24092;53.370;-6.588;2023-03-01T11:11:18;102963.40;;;-1.64;100.00
38289;BME280;24092;53.370;-6.588;2023-03-01T11:13:52;102963.26;;;-1.15;100.00
38289;BME280;24092;53.370;-6.588;2023-03-01T11:16:27;102953.04;;;-0.73;100.00
38289;BME280;24092;53.370;-6.588;2023-03-01T11:19:26;102953.44;;;-1.27;100.00
38289;BME280;24092;53.370;-6.588;2023-03-01T11:21:59;102956.33;;;-1.82;100.00
38289;BME280;24092;53.370;-6.588;2023-03-01T11:24:33;102951.84;;;-0.15;100.00
38289;BME280;24092;53.370;-6.588;2023-03-01T11:27:04;102941.75;;;-1.36;100.00
38289;BME280;24092;53.370;-6.588;2023-03-01T11:29:42;102943.71;;;-1.54;100.00
38289;BME280;24092;53.370;-6.588;2023-03-01T11:32:13;102941.08;;;-1.13;100.00
38289;BME280;24092;53.370;-6.588;2023-03-01T11:34:45;102933.23;;;-2.10;100.00
38289;BME280;24092;53.370;-6.588;2023-03-01T11:37:22;102934.01;;;-1.44;100.00
38289;BME280;24092;53.370;-6.588;2023-03-01T11:40:00;102932.00;;;-0.89;100.00
38289;BME280;24092;53.370;-6.588;2023-03-01T11:42:40;102931.63;;;-1.89;100.00
38289;BME280;24092;53.370;-6.588;2023-03-01T11:45:11;102928.55;;;-0.86;100.00
38289;BME280;24092;53.370;-6.588;2023-03-01T11:48:02;102926.49;;;-0.39;100.00
38289;BME280;24092;53.370;-6.588;2023-03-01T11:50:39;102928.72;;;-1.16;100.00
38289;BME280;24092;53.370;-6.588;2023-03-01T11:53:22;102927.49;;;-1.70;100.00
38289;BME280;24092;53.370;-6.588;2023-03-01T11:56:08;102931.32;;;-1.46;100.00
38289;BME280;24092;53.370;-6.588;2023-03-01T11:58:47;102925.77;;;-1.24;100.00
38289;BME280;24092;53.370;-6.588;2023-03-01T12:01:30;102926.26;;;-0.78;100.00
38289;BME280;24092;53.370;-6.588;2023-03-01T12:04:14;102916.92;;;-0.41;100.00
38289;BME280;24092;53.370;-6.588;2023-03-01T12:06:52;102914.39;;;-0.34;100.00
38289;BME280;24092;53.370;-6.588;2023-03-01T12:09:38;102908.93;;;-0.91;100.00
38289;BME280;24092;53.370;-6.588;2023-03-01T12:12:27;102908.93;;;-1.20;100.00
38289;BME280;24092;53.370;-6.588;2023-03-01T12:15:09;102908.40;;;-1.31;100.00
38289;BME280;24092;53.370;-6.588;2023-03-01T12:17:56;102900.19;;;-1.02;100.00
38289;BME280;24092;53.370;-6.588;2023-03-01T12:20:31;102894.83;;;-0.81;100.00
38289;BME280;24092;53.370;-6.588;2023-03-01T12:23:15;102894.47;;;-1.38;100.00
38289;BME280;24092;53.370;-6.588;2023-03-01T12:25:51;102886.28;;;-1.44;100.00
38289;BME280;24092;53.370;-6.588;2023-03-01T12:28:37;102882.19;;;-1.17;100.00
38289;BME280;24092;53.370;-6.588;2023-03-01T12:31:29;102868.48;;;-0.48;100.00
38289;BME280;24092;53.370;-6.588;2023-03-01T12:34:05;102858.60;;;0.05;100.00
38289;BME280;24092;53.370;-6.588;2023-03-01T12:36:52;102858.09;;;-0.77;100.00
38289;BME280;24092;53.370;-6.588;2023-03-01T12:39:33;102853.18;;;-0.20;100.00
38289;BME280;24092;53.370;-6.588;2023-03-01T12:42:14;102846.17;;;-0.84;100.00
38289;BME280;24092;53.370;-6.588;2023-03-01T12:44:57;102841.19;;;-0.79;100.00
38289;BME280;24092;53.370;-6.588;2023-03-01T12:47:47;102838.45;;;-0.73;100.00